Time;durP1;ratioP1;P1;durP2;ratioP2;P2;SDS_P1;SDS_P2;PMS_P1;PMS_P2;Temp;Humidity;BMP_temperature;BMP_pressure;BME280_temperature;BME280_humidity;BME280_pressure;Samples;Min_cycle;Max_cycle;Signal;HPM_P1;HPM_P2
2023/09/30 00:00:08;;;;;;;12.27;3.70;;;;;;;15.95;65.21;100644.97;4953805;28;20062;-74
2023/09/30 00:02:35;;;;;;;14.32;3.88;;;;;;;15.96;65.19;100656.47;4954485;28;20055;-74
2023/09/30 00:05:02;;;;;;;12.70;3.30;;;;;;;15.97;65.24;100658.16;4954184;28;20489;-76
2023/09/30 00:07:30;;;;;;;17.80;4.43;;;;;;;15.95;65.32;100655.59;4954430;28;20488;-77
2023/09/30 00:09:57;;;;;;;15.20;4.03;;;;;;;15.95;65.26;100652.94;4954510;29;20082;-74
2023/09/30 00:12:23;;;;;;;9.30;4.00;;;;;;;15.97;65.33;100655.50;4954228;28;20065;-75
2023/09/30 00:14:50;;;;;;;15.00;4.18;;;;;;;15.96;65.13;100659.94;4953965;28;20142;-73
2023/09/30 00:17:16;;;;;;;14.30;4.00;;;;;;;15.98;65.19;100667.81;4954482;28;20146;-72
2023/09/30 00:19:44;;;;;;;14.13;3.75;;;;;;;15.97;65.14;100667.00;4954357;29;20063;-73
2023/09/30 00:22:11;;;;;;;9.50;3.75;;;;;;;15.97;65.04;100671.44;4954270;28;20047;-73
2023/09/30 00:24:38;;;;;;;14.95;3.92;;;;;;;15.95;65.24;100668.00;4954208;28;20059;-75
2023/09/30 00:27:04;;;;;;;16.75;4.03;;;;;;;15.94;65.35;100668.94;4954105;28;20137;-78
2023/09/30 00:29:31;;;;;;;15.00;3.92;;;;;;;15.94;65.35;100663.63;4953880;28;20083;-72
2023/09/30 00:31:57;;;;;;;12.18;4.00;;;;;;;15.93;65.19;100670.75;4954149;28;20101;-76
2023/09/30 00:34:24;;;;;;;12.70;3.25;;;;;;;15.92;65.22;100682.31;4953885;28;20055;-77
2023/09/30 00:36:51;;;;;;;14.32;4.10;;;;;;;15.91;65.36;100677.97;4954007;28;20129;-73
2023/09/30 00:39:17;;;;;;;13.70;4.03;;;;;;;15.91;65.34;100670.00;4953916;28;20098;-74
2023/09/30 00:41:44;;;;;;;13.18;3.92;;;;;;;15.92;65.39;100684.13;4953785;28;20408;-74
2023/09/30 00:44:10;;;;;;;12.45;3.72;;;;;;;15.92;65.30;100678.81;4953785;28;20063;-75
2023/09/30 00:46:41;;;;;;;15.25;3.30;;;;;;;15.91;65.60;100680.63;4953905;29;20075;-74
2023/09/30 00:49:09;;;;;;;10.95;3.78;;;;;;;15.91;65.51;100672.66;4953821;28;20058;-75
2023/09/30 00:51:37;;;;;;;13.77;4.03;;;;;;;15.92;65.75;100669.03;4953661;28;20059;-72
2023/09/30 00:54:05;;;;;;;15.18;4.10;;;;;;;15.93;65.46;100669.91;4953522;28;20511;-76
2023/09/30 00:56:32;;;;;;;14.55;3.70;;;;;;;15.93;65.34;100669.91;4953233;28;20051;-75
2023/09/30 00:58:59;;;;;;;13.43;3.60;;;;;;;15.92;65.29;100668.22;4953627;28;20051;-79
2023/09/30 01:01:26;;;;;;;15.27;4.18;;;;;;;15.92;65.64;100669.03;4953529;28;20138;-75
2023/09/30 01:03:53;;;;;;;16.77;3.67;;;;;;;15.93;65.58;100665.44;4953346;28;20059;-75
2023/09/30 01:06:20;;;;;;;15.20;4.03;;;;;;;15.92;65.63;100661.06;4953100;29;20476;-75
2023/09/30 01:08:46;;;;;;;15.30;4.35;;;;;;;15.93;65.57;100654.84;4953465;28;20059;-78
2023/09/30 01:11:14;;;;;;;11.60;3.35;;;;;;;15.94;65.43;100667.19;4952295;28;20057;-76
2023/09/30 01:13:40;;;;;;;14.82;3.22;;;;;;;15.93;65.34;100668.09;4952621;28;20058;-74
2023/09/30 01:16:11;;;;;;;12.63;3.90;;;;;;;15.94;65.55;100666.28;4952017;29;20081;-75
2023/09/30 01:18:41;;;;;;;19.20;3.97;;;;;;;15.94;65.49;100667.19;4952984;28;20079;-74
2023/09/30 01:21:09;;;;;;;9.13;3.50;;;;;;;15.94;65.38;100669.84;4953124;28;20051;-77
2023/09/30 01:23:36;;;;;;;13.95;4.25;;;;;;;15.93;65.34;100665.44;4952277;28;20051;-78
2023/09/30 01:26:05;;;;;;;12.43;3.53;;;;;;;15.93;65.33;100662.81;4953022;29;20542;-74
2023/09/30 01:28:31;;;;;;;13.77;3.92;;;;;;;15.94;65.33;100664.53;4952952;28;20051;-75
2023/09/30 01:30:58;;;;;;;15.65;3.30;;;;;;;15.92;65.57;100666.38;4952988;28;20149;-75
2023/09/30 01:33:25;;;;;;;12.43;3.88;;;;;;;15.94;65.41;100680.47;4952038;28;20137;-74
2023/09/30 01:35:52;;;;;;;13.23;3.65;;;;;;;15.93;65.31;100670.75;4952514;29;20686;-75
2023/09/30 01:38:19;;;;;;;13.05;3.58;;;;;;;15.92;65.33;100671.69;4952582;28;20093;-74
2023/09/30 01:40:46;;;;;;;17.25;3.75;;;;;;;15.92;65.46;100669.03;4953031;28;20059;-74
2023/09/30 01:43:13;;;;;;;13.88;4.07;;;;;;;15.90;65.39;100674.44;4952461;28;20050;-77
2023/09/30 01:45:41;;;;;;;17.05;3.75;;;;;;;15.89;65.40;100663.94;4952716;28;20093;-74
2023/09/30 01:48:10;;;;;;;15.73;4.57;;;;;;;15.87;65.32;100679.13;4952805;28;20062;-75
2023/09/30 01:50:40;;;;;;;16.05;4.00;;;;;;;15.83;65.64;100686.44;4952661;28;20055;-79
2023/09/30 01:53:07;;;;;;;12.57;3.72;;;;;;;15.84;65.39;100689.91;4952369;28;20070;-75
2023/09/30 01:55:34;;;;;;;11.27;4.00;;;;;;;15.81;65.53;100688.31;4952127;28;20501;-74
2023/09/30 01:58:01;;;;;;;13.13;3.95;;;;;;;15.80;65.59;100694.59;4952594;28;20125;-75
2023/09/30 02:00:28;;;;;;;14.18;4.30;;;;;;;15.79;65.62;100697.34;4952567;28;20093;-74
2023/09/30 02:02:55;;;;;;;18.33;3.97;;;;;;;15.80;65.79;100701.69;4952335;28;20090;-74
2023/09/30 02:05:23;;;;;;;15.50;4.03;;;;;;;15.80;65.71;100705.19;4951908;28;20058;-75
2023/09/30 02:07:50;;;;;;;14.55;3.40;;;;;;;15.80;65.67;100696.38;4952809;28;20059;-74
2023/09/30 02:10:18;;;;;;;13.68;3.70;;;;;;;15.80;65.65;100696.38;4952375;28;20146;-73
2023/09/30 02:12:45;;;;;;;13.38;4.05;;;;;;;15.79;65.60;100692.03;4952143;28;20496;-76
2023/09/30 02:15:13;;;;;;;15.43;3.88;;;;;;;15.79;65.84;100700.00;4951813;28;20047;-74
2023/09/30 02:17:45;;;;;;;15.32;3.65;;;;;;;15.78;65.60;100699.16;4952343;28;20141;-75
2023/09/30 02:20:15;;;;;;;19.30;4.60;;;;;;;15.77;65.62;100692.97;4952538;28;20138;-75
2023/09/30 02:22:44;;;;;;;22.90;4.35;;;;;;;15.79;65.54;100694.69;4953119;28;20079;-74
2023/09/30 02:25:12;;;;;;;11.35;3.70;;;;;;;15.79;65.52;100692.03;4955526;28;20464;-74
2023/09/30 02:27:41;;;;;;;12.68;4.40;;;;;;;15.77;65.66;100692.97;4955906;28;20055;-78
2023/09/30 02:30:10;;;;;;;19.88;4.03;;;;;;;15.75;65.53;100697.53;4955874;29;20079;-75
2023/09/30 02:32:39;;;;;;;16.70;4.57;;;;;;;15.76;65.60;100701.03;4955587;28;20051;-75
2023/09/30 02:35:07;;;;;;;17.15;4.30;;;;;;;15.74;65.40;100703.78;4955312;28;20074;-74
2023/09/30 02:37:37;;;;;;;15.02;3.85;;;;;;;15.73;65.45;100703.88;4954663;29;20077;-75
2023/09/30 02:40:09;;;;;;;13.52;3.80;;;;;;;15.68;65.53;100709.50;4955836;28;20051;-73
2023/09/30 02:42:39;;;;;;;18.77;4.30;;;;;;;15.67;65.38;100715.75;4955635;28;20090;-75
2023/09/30 02:45:08;;;;;;;13.60;4.15;;;;;;;15.65;65.25;100709.69;4953966;29;20507;-74
2023/09/30 02:47:35;;;;;;;14.40;4.43;;;;;;;15.63;65.45;100712.44;4955228;28;20051;-75
2023/09/30 02:50:02;;;;;;;12.48;3.97;;;;;;;15.61;65.51;100702.88;4955488;28;20073;-76
2023/09/30 02:52:28;;;;;;;13.38;4.40;;;;;;;15.58;65.47;100693.28;4955495;28;20051;-75
2023/09/30 02:54:57;;;;;;;15.57;4.95;;;;;;;15.56;65.44;100697.88;4954964;28;20518;-75
2023/09/30 02:57:24;;;;;;;11.93;4.22;;;;;;;15.54;65.52;100697.09;4955088;28;20071;-73
2023/09/30 02:59:54;;;;;;;14.02;4.40;;;;;;;15.53;65.62;100703.34;4955612;28;20053;-74
2023/09/30 03:02:23;;;;;;;13.23;3.95;;;;;;;15.52;65.69;100687.53;4954266;29;20058;-75
2023/09/30 03:04:51;;;;;;;12.32;3.75;;;;;;;15.53;65.74;100689.22;4955303;29;20086;-75
2023/09/30 03:07:19;;;;;;;16.45;3.95;;;;;;;15.50;65.44;100683.19;4955425;28;20505;-73
2023/09/30 03:09:46;;;;;;;12.40;4.28;;;;;;;15.50;65.76;100675.22;4955257;28;20110;-74
2023/09/30 03:12:14;;;;;;;9.80;3.40;;;;;;;15.50;65.66;100682.31;4955394;28;20412;-75
2023/09/30 03:14:40;;;;;;;15.02;3.67;;;;;;;15.50;65.62;100685.81;4955167;28;20427;-75
2023/09/30 03:17:11;;;;;;;14.32;4.03;;;;;;;15.50;65.70;100696.44;4955042;28;20480;-75
2023/09/30 03:19:38;;;;;;;12.52;4.07;;;;;;;15.52;65.84;100695.50;4955126;28;20150;-72
2023/09/30 03:22:06;;;;;;;14.18;3.50;;;;;;;15.52;65.81;100706.09;4954980;28;20052;-75
2023/09/30 03:24:35;;;;;;;15.98;4.47;;;;;;;15.52;65.71;100704.31;4954707;28;20090;-74
2023/09/30 03:27:02;;;;;;;17.05;4.70;;;;;;;15.52;65.75;100704.31;4955101;28;20044;-74
2023/09/30 03:29:28;;;;;;;13.13;4.15;;;;;;;15.50;65.63;100704.41;4955069;28;20101;-75
2023/09/30 03:31:56;;;;;;;15.80;4.88;;;;;;;15.50;65.66;100698.22;4954888;28;20055;-77
2023/09/30 03:34:23;;;;;;;17.15;4.75;;;;;;;15.48;65.53;100700.97;4952151;28;20145;-73
2023/09/30 03:36:49;;;;;;;19.10;4.18;;;;;;;15.49;65.69;100702.72;4954669;29;20520;-75
2023/09/30 03:39:17;;;;;;;12.55;4.57;;;;;;;15.47;65.80;100712.53;4954883;29;20105;-77
2023/09/30 03:41:44;;;;;;;10.68;4.38;;;;;;;15.47;65.43;100709.91;4954557;28;20496;-75
2023/09/30 03:44:11;;;;;;;18.02;4.40;;;;;;;15.47;65.62;100714.34;4954502;29;20063;-76
2023/09/30 03:46:37;;;;;;;18.55;4.90;;;;;;;15.45;65.56;100714.47;4954743;28;20461;-76
2023/09/30 03:49:04;;;;;;;11.77;4.00;;;;;;;15.43;65.50;100705.72;4953353;29;20067;-79
2023/09/30 03:51:30;;;;;;;12.93;4.70;;;;;;;15.40;65.49;100700.59;4954419;28;20047;-74
2023/09/30 03:53:57;;;;;;;13.35;4.50;;;;;;;15.39;65.67;100698.91;4954439;28;20098;-75
2023/09/30 03:56:24;;;;;;;16.70;4.53;;;;;;;15.37;65.67;100696.34;4954385;28;20070;-75
2023/09/30 03:58:52;;;;;;;19.67;4.95;;;;;;;15.36;65.72;100684.03;4954500;28;20233;-75
2023/09/30 04:01:19;;;;;;;16.23;4.38;;;;;;;15.36;65.85;100686.69;4954401;28;20138;-74
2023/09/30 04:03:46;;;;;;;15.57;5.15;;;;;;;15.36;65.86;100699.09;4953003;29;20496;-74
2023/09/30 04:06:13;;;;;;;15.70;4.80;;;;;;;15.34;65.83;100699.22;4954001;28;20090;-74
2023/09/30 04:08:40;;;;;;;15.25;4.82;;;;;;;15.33;65.51;100694.00;4954342;28;20062;-75
2023/09/30 04:11:07;;;;;;;11.32;4.40;;;;;;;15.31;65.72;100691.44;4954050;29;20051;-75
2023/09/30 04:13:33;;;;;;;13.60;4.30;;;;;;;15.30;65.70;100680.91;4954050;28;20109;-76
2023/09/30 04:16:00;;;;;;;14.25;4.57;;;;;;;15.30;65.69;100672.94;4953849;28;20113;-76
2023/09/30 04:18:26;;;;;;;13.57;4.30;;;;;;;15.29;65.95;100674.75;4953888;29;20051;-76
2023/09/30 04:20:53;;;;;;;11.77;4.53;;;;;;;15.29;65.97;100681.88;4953844;29;20058;-75
2023/09/30 04:23:20;;;;;;;15.82;4.25;;;;;;;15.30;65.97;100689.72;4953900;29;20099;-75
2023/09/30 04:25:47;;;;;;;16.20;4.55;;;;;;;15.29;66.15;100697.78;4952411;28;20047;-74
2023/09/30 04:28:13;;;;;;;11.88;4.40;;;;;;;15.30;65.95;100708.31;4953817;29;20058;-75
2023/09/30 04:30:42;;;;;;;12.55;4.55;;;;;;;15.31;66.42;100698.53;4953780;28;20057;-76
2023/09/30 04:35:46;;;;;;;13.20;3.80;;;;;;;15.32;66.11;100694.91;4933667;29;20082;-75
2023/09/30 04:38:13;;;;;;;15.52;4.47;;;;;;;15.33;66.38;100696.66;4935310;29;20047;-77
2023/09/30 04:40:39;;;;;;;16.95;4.28;;;;;;;15.34;65.91;100695.69;4935076;29;20048;-76
2023/09/30 04:43:06;;;;;;;14.57;4.90;;;;;;;15.34;65.95;100695.69;4935328;29;20083;-76
2023/09/30 04:45:32;;;;;;;16.05;4.97;;;;;;;15.34;66.04;100698.34;4934627;29;20062;-76
2023/09/30 04:48:01;;;;;;;15.50;4.93;;;;;;;15.35;66.06;100703.56;4935181;29;20062;-77
2023/09/30 04:50:28;;;;;;;19.48;5.53;;;;;;;15.36;66.07;100715.00;4935121;29;20063;-76
2023/09/30 04:52:57;;;;;;;14.13;4.43;;;;;;;15.36;66.04;100710.56;4934893;29;20051;-77
2023/09/30 04:55:24;;;;;;;15.40;4.90;;;;;;;15.37;66.06;100716.72;4935025;29;20063;-78
2023/09/30 04:57:51;;;;;;;14.32;5.00;;;;;;;15.37;66.18;100714.06;4949657;29;20066;-76
2023/09/30 05:00:24;;;;;;;17.17;5.13;;;;;;;15.36;65.94;100705.25;4935113;29;20060;-77
2023/09/30 05:02:52;;;;;;;15.07;4.40;;;;;;;15.37;66.07;100703.47;4935060;29;20048;-76
2023/09/30 05:05:19;;;;;;;13.95;4.88;;;;;;;15.37;66.04;100701.66;4934529;29;20497;-77
2023/09/30 05:07:47;;;;;;;17.85;4.70;;;;;;;15.38;65.95;100705.16;4949420;28;20062;-79
2023/09/30 05:10:16;;;;;;;16.40;5.00;;;;;;;15.38;66.15;100713.13;4934645;29;20055;-76
2023/09/30 05:12:45;;;;;;;20.88;5.47;;;;;;;15.38;66.12;100707.81;4934471;29;20066;-75
2023/09/30 05:15:15;;;;;;;13.80;4.45;;;;;;;15.39;66.05;100714.00;4934450;29;20474;-79
2023/09/30 05:17:43;;;;;;;9.50;4.38;;;;;;;15.41;66.05;100722.69;4933300;29;20043;-75
2023/09/30 05:20:12;;;;;;;11.93;4.60;;;;;;;15.41;66.05;100717.38;4934447;29;20469;-77
2023/09/30 05:22:45;;;;;;;13.13;5.07;;;;;;;15.41;66.23;100720.03;4934445;29;20492;-77
2023/09/30 05:25:18;;;;;;;10.43;4.93;;;;;;;15.41;66.36;100718.25;4934478;29;20454;-76
2023/09/30 05:27:47;;;;;;;16.70;4.65;;;;;;;15.44;66.07;100720.69;4934756;29;20058;-77
2023/09/30 05:30:15;;;;;;;13.27;5.05;;;;;;;15.44;66.04;100722.50;4934298;29;20048;-79
2023/09/30 05:32:42;;;;;;;14.15;5.22;;;;;;;15.44;65.85;100733.94;4934462;29;20122;-79
2023/09/30 05:35:16;;;;;;;18.52;5.35;;;;;;;15.43;65.87;100732.25;4934242;29;20400;-77
2023/09/30 05:37:45;;;;;;;11.98;4.72;;;;;;;15.43;65.72;100737.56;4934317;29;20078;-75
2023/09/30 05:40:25;;;;;;;15.05;5.43;;;;;;;15.41;65.71;100744.78;4934601;29;20095;-78
2023/09/30 05:42:53;;;;;;;18.13;5.57;;;;;;;15.40;65.57;100747.53;4933969;29;20449;-75
2023/09/30 05:45:23;;;;;;;16.08;5.57;;;;;;;15.37;65.71;100746.75;4933969;29;20103;-78
2023/09/30 05:47:52;;;;;;;13.15;6.07;;;;;;;15.36;65.68;100750.34;4934981;29;20490;-75
2023/09/30 05:50:24;;;;;;;14.18;4.93;;;;;;;15.34;65.76;100759.34;4934724;29;20135;-76
2023/09/30 05:52:51;;;;;;;12.82;5.10;;;;;;;15.33;65.94;100749.69;4935021;29;20146;-76
2023/09/30 05:55:21;;;;;;;15.10;5.50;;;;;;;15.31;65.73;100747.13;4934874;29;20061;-77
2023/09/30 05:57:54;;;;;;;11.63;5.20;;;;;;;15.30;65.78;100757.84;4935851;29;20060;-78
2023/09/30 06:00:23;;;;;;;12.68;5.07;;;;;;;15.28;65.79;100754.44;4938904;29;20052;-79
2023/09/30 06:02:51;;;;;;;9.63;5.10;;;;;;;15.27;65.88;100755.34;4938795;29;20066;-75
2023/09/30 06:05:26;;;;;;;10.48;5.53;;;;;;;15.26;65.76;100751.00;4939213;28;20588;-76
2023/09/30 06:07:54;;;;;;;16.02;5.55;;;;;;;15.24;65.67;100751.09;4937728;29;20051;-76
2023/09/30 06:10:21;;;;;;;15.27;5.82;;;;;;;15.24;65.84;100759.06;4938663;29;20047;-79
2023/09/30 06:12:48;;;;;;;15.50;5.53;;;;;;;15.23;65.88;100763.53;4937316;29;20086;-76
2023/09/30 06:15:16;;;;;;;17.27;5.30;;;;;;;15.23;66.18;100774.13;4937198;29;20081;-75
2023/09/30 06:17:42;;;;;;;12.25;4.78;;;;;;;15.21;66.01;100764.53;4938762;29;20051;-75
2023/09/30 06:20:17;;;;;;;14.00;5.22;;;;;;;15.21;66.15;100773.34;4937140;29;20140;-75
2023/09/30 06:22:51;;;;;;;14.38;5.20;;;;;;;15.21;66.61;100767.19;4939415;29;20047;-75
2023/09/30 06:25:18;;;;;;;15.93;4.97;;;;;;;15.21;66.01;100765.41;4937890;29;20059;-75
2023/09/30 06:27:46;;;;;;;12.30;4.95;;;;;;;15.22;66.15;100767.09;4938884;29;20056;-76
2023/09/30 06:30:17;;;;;;;13.55;5.35;;;;;;;15.24;66.37;100775.84;4939199;29;20043;-75
2023/09/30 06:32:45;;;;;;;11.23;5.00;;;;;;;15.26;66.28;100775.75;4939212;29;20044;-76
2023/09/30 06:35:12;;;;;;;13.27;5.43;;;;;;;15.29;66.41;100777.34;4938841;29;20051;-75
2023/09/30 06:37:40;;;;;;;12.90;5.90;;;;;;;15.31;66.61;100778.09;4938466;29;20056;-75
2023/09/30 06:40:09;;;;;;;9.68;5.10;;;;;;;15.34;66.65;100786.75;4938931;29;20047;-76
2023/09/30 06:42:36;;;;;;;14.65;5.82;;;;;;;15.36;66.64;100789.28;4938176;29;20060;-75
2023/09/30 06:45:05;;;;;;;17.63;5.97;;;;;;;15.39;66.65;100791.75;4938230;29;20056;-76
2023/09/30 06:47:36;;;;;;;12.45;5.10;;;;;;;15.41;66.47;100791.66;4938657;29;20048;-75
2023/09/30 06:50:09;;;;;;;13.27;5.18;;;;;;;15.43;66.55;100787.97;4937213;29;20134;-75
2023/09/30 06:52:37;;;;;;;13.37;5.60;;;;;;;15.47;66.77;100789.50;4937349;29;20573;-75
2023/09/30 06:55:06;;;;;;;16.30;5.97;;;;;;;15.51;66.63;100795.44;4937495;29;20307;-75
2023/09/30 06:57:34;;;;;;;15.32;5.88;;;;;;;15.53;66.77;100798.03;4938032;29;20508;-75
2023/09/30 07:00:04;;;;;;;17.92;5.75;;;;;;;15.57;66.76;100799.53;4938363;29;20142;-76
2023/09/30 07:02:30;;;;;;;11.82;4.90;;;;;;;15.59;66.79;100795.84;4938287;29;20062;-75
2023/09/30 07:04:57;;;;;;;13.70;4.97;;;;;;;15.62;66.67;100798.31;4937955;29;20048;-75
2023/09/30 07:07:24;;;;;;;16.88;5.13;;;;;;;15.66;66.39;100806.09;4937263;29;20055;-80
2023/09/30 07:09:50;;;;;;;17.25;5.60;;;;;;;15.69;66.89;100798.78;4938274;28;20051;-75
2023/09/30 07:12:18;;;;;;;18.77;6.07;;;;;;;15.71;66.58;100796.91;4937935;29;20134;-76
2023/09/30 07:14:45;;;;;;;15.05;6.38;;;;;;;15.74;66.64;100796.69;4938355;29;20142;-75
2023/09/30 07:17:12;;;;;;;12.70;5.50;;;;;;;15.75;66.68;100793.09;4937706;29;20062;-76
2023/09/30 07:19:39;;;;;;;14.20;5.53;;;;;;;15.78;66.78;100802.69;4937926;29;20489;-81
2023/09/30 07:22:05;;;;;;;12.05;5.40;;;;;;;15.81;66.76;100799.81;4937703;29;20509;-75
2023/09/30 07:24:32;;;;;;;14.02;5.57;;;;;;;15.83;67.06;100795.28;4936512;29;20055;-76
2023/09/30 07:27:02;;;;;;;14.60;6.38;;;;;;;15.87;67.06;100804.75;4937582;29;20417;-82
2023/09/30 07:29:39;;;;;;;17.15;6.15;;;;;;;15.90;67.07;100812.50;4938111;29;20056;-77
2023/09/30 07:32:08;;;;;;;11.02;5.50;;;;;;;15.94;67.15;100815.88;4937711;29;20083;-77
2023/09/30 07:34:35;;;;;;;11.30;6.10;;;;;;;15.98;67.20;100817.41;4937638;29;20087;-75
2023/09/30 07:37:02;;;;;;;16.02;5.35;;;;;;;16.03;67.16;100817.09;4937352;29;20136;-75
2023/09/30 07:39:30;;;;;;;15.20;6.57;;;;;;;16.06;67.18;100818.69;4937210;29;20052;-76
2023/09/30 07:41:57;;;;;;;17.10;6.63;;;;;;;16.10;67.22;100820.19;4937147;29;20058;-76
2023/09/30 07:44:26;;;;;;;16.25;6.43;;;;;;;16.13;67.24;100826.19;4936549;28;20407;-75
2023/09/30 07:46:53;;;;;;;12.73;6.63;;;;;;;16.17;67.25;100829.50;4937513;29;20139;-75
2023/09/30 07:49:20;;;;;;;15.18;6.22;;;;;;;16.20;67.16;100821.34;4937946;29;20056;-74
2023/09/30 07:51:47;;;;;;;12.95;6.30;;;;;;;16.24;67.31;100833.47;4937729;29;20126;-78
2023/09/30 07:54:14;;;;;;;15.77;7.53;;;;;;;16.28;67.31;100837.66;4937326;29;20048;-76
2023/09/30 07:56:57;;;;;;;19.45;7.05;;;;;;;16.34;67.20;100847.00;4937252;29;20436;-75
2023/09/30 07:59:25;;;;;;;12.98;7.25;;;;;;;16.38;67.22;100837.06;4937229;29;20054;-76
2023/09/30 08:01:52;;;;;;;14.95;7.28;;;;;;;16.45;67.31;100851.63;4936016;29;20052;-75
2023/09/30 08:04:22;;;;;;;15.23;6.82;;;;;;;16.49;67.37;100858.47;4936729;29;20085;-75
2023/09/30 08:06:50;;;;;;;13.43;6.47;;;;;;;16.56;67.49;100863.41;4936943;29;20048;-75
2023/09/30 08:09:18;;;;;;;15.77;7.45;;;;;;;16.61;67.42;100854.19;4936811;29;20051;-77
2023/09/30 08:11:45;;;;;;;17.98;7.85;;;;;;;16.68;67.77;100866.09;4936918;29;20134;-76
2023/09/30 08:14:14;;;;;;;16.77;7.75;;;;;;;16.77;67.99;100859.34;4936616;29;20126;-85
2023/09/30 08:16:42;;;;;;;15.82;7.22;;;;;;;16.88;67.80;100869.28;4936818;29;20127;-76
2023/09/30 08:19:09;;;;;;;17.60;7.63;;;;;;;16.99;67.82;100865.03;4936405;29;20052;-75
2023/09/30 08:21:36;;;;;;;12.00;6.45;;;;;;;17.08;67.41;100872.44;4935930;29;20059;-75
2023/09/30 08:24:03;;;;;;;16.20;6.75;;;;;;;17.17;67.30;100873.63;4936241;29;20062;-78
2023/09/30 08:26:30;;;;;;;15.27;6.68;;;;;;;17.25;67.00;100870.44;4936351;29;20524;-77
2023/09/30 08:28:56;;;;;;;14.05;6.35;;;;;;;17.31;66.73;100878.88;4936594;29;20054;-75
2023/09/30 08:31:26;;;;;;;12.35;6.50;;;;;;;17.36;66.86;100875.91;4936801;29;20479;-75
2023/09/30 08:33:53;;;;;;;13.38;6.38;;;;;;;17.43;66.26;100879.00;4936447;29;20059;-80
2023/09/30 08:36:20;;;;;;;14.40;6.10;;;;;;;17.47;66.05;100883.16;4936076;29;20508;-75
2023/09/30 08:38:46;;;;;;;18.10;6.82;;;;;;;17.50;65.98;100874.09;4936017;29;20055;-75
2023/09/30 08:41:31;;;;;;;16.92;6.97;;;;;;;17.51;65.87;100874.00;4935012;29;20056;-78
2023/09/30 08:44:02;;;;;;;15.35;6.57;;;;;;;17.58;65.87;100882.44;4936282;29;20134;-76
2023/09/30 08:46:34;;;;;;;14.52;6.38;;;;;;;17.63;66.06;100885.63;4936159;29;20051;-76
2023/09/30 08:49:03;;;;;;;15.30;6.00;;;;;;;17.70;65.96;100894.91;4936011;29;20079;-75
2023/09/30 08:51:31;;;;;;;14.35;6.75;;;;;;;17.77;66.13;100897.13;4936247;29;20090;-78
2023/09/30 08:53:59;;;;;;;18.63;6.75;;;;;;;17.83;65.85;100886.91;4936075;29;20138;-76
2023/09/30 08:56:32;;;;;;;14.45;6.90;;;;;;;17.89;65.67;100890.06;4935977;29;20059;-76
2023/09/30 08:59:02;;;;;;;18.42;6.53;;;;;;;17.96;65.69;100881.56;4935194;29;20115;-77
2023/09/30 09:01:30;;;;;;;15.88;6.95;;;;;;;18.03;65.55;100886.44;4935756;29;20052;-77
2023/09/30 09:03:57;;;;;;;14.68;6.78;;;;;;;18.07;65.47;100875.47;4935654;29;20127;-76
2023/09/30 09:06:25;;;;;;;13.05;7.30;;;;;;;18.11;65.45;100870.81;4935915;29;20044;-75
2023/09/30 09:08:52;;;;;;;14.18;6.95;;;;;;;18.17;65.32;100870.34;4936203;28;20055;-76
2023/09/30 09:11:19;;;;;;;13.57;6.90;;;;;;;18.22;65.00;100876.25;4936105;29;20051;-75
2023/09/30 09:13:55;;;;;;;14.57;6.68;;;;;;;18.26;64.58;100876.00;4935412;29;20055;-76
2023/09/30 09:16:23;;;;;;;16.27;6.90;;;;;;;18.30;64.72;100881.00;4935618;29;20087;-76
2023/09/30 09:18:50;;;;;;;13.85;7.38;;;;;;;18.33;64.96;100871.94;4935911;29;20051;-75
2023/09/30 09:21:22;;;;;;;14.30;7.03;;;;;;;18.36;65.13;100871.72;4935750;29;20126;-76
2023/09/30 09:23:51;;;;;;;15.43;7.32;;;;;;;18.40;64.87;100867.88;4935548;29;20077;-75
2023/09/30 09:26:29;;;;;;;15.15;7.20;;;;;;;18.43;65.00;100872.13;4935664;29;20055;-75
2023/09/30 09:28:58;;;;;;;14.70;6.68;;;;;;;18.51;65.04;100876.91;4935955;29;20052;-79
2023/09/30 09:31:34;;;;;;;13.23;7.10;;;;;;;18.53;64.87;100870.47;4935415;29;20070;-75
2023/09/30 09:34:03;;;;;;;14.75;6.85;;;;;;;18.60;64.84;100861.09;4934646;29;20059;-76
2023/09/30 09:36:41;;;;;;;15.48;7.85;;;;;;;18.64;64.92;100859.03;4934705;29;20082;-76
2023/09/30 09:39:13;;;;;;;16.25;6.60;;;;;;;18.71;65.12;100865.63;4935475;29;20503;-75
2023/09/30 09:41:51;;;;;;;11.63;7.32;;;;;;;18.73;65.19;100871.69;4935633;29;20054;-77
2023/09/30 09:44:25;;;;;;;15.40;7.35;;;;;;;18.82;65.16;100872.84;4935081;29;20052;-77
2023/09/30 09:46:51;;;;;;;14.93;7.90;;;;;;;18.92;65.78;100869.47;4935042;29;20056;-78
2023/09/30 09:49:20;;;;;;;15.48;7.28;;;;;;;19.01;65.71;100866.97;4935047;29;20115;-75
2023/09/30 09:51:48;;;;;;;14.85;7.32;;;;;;;19.14;65.92;100868.75;4934941;28;20062;-76
2023/09/30 09:54:16;;;;;;;15.27;7.50;;;;;;;19.27;65.93;100861.50;4934351;29;20122;-76
2023/09/30 09:56:46;;;;;;;17.67;8.30;;;;;;;19.41;65.15;100862.28;4934993;29;20055;-75
2023/09/30 09:59:14;;;;;;;11.18;6.75;;;;;;;19.57;64.79;100872.59;4934936;29;20083;-79
2023/09/30 10:01:42;;;;;;;12.57;6.88;;;;;;;19.67;64.66;100878.94;4935170;29;20055;-77
2023/09/30 10:04:15;;;;;;;14.10;6.88;;;;;;;19.77;64.16;100878.19;4933807;29;20059;-76
2023/09/30 10:06:48;;;;;;;13.35;6.45;;;;;;;19.87;63.73;100884.53;4935083;28;20497;-76
2023/09/30 10:09:17;;;;;;;12.20;5.82;;;;;;;19.96;64.17;100880.28;4934814;29;20083;-76
2023/09/30 10:11:45;;;;;;;10.70;5.68;;;;;;;20.04;63.89;100885.06;4934806;29;20052;-76
2023/09/30 10:14:33;;;;;;;11.90;5.95;;;;;;;20.08;63.32;100877.66;4934043;29;20056;-76
2023/09/30 10:17:01;;;;;;;9.43;5.70;;;;;;;20.22;64.11;100882.72;4935359;29;20051;-76
2023/09/30 10:19:29;;;;;;;11.80;5.65;;;;;;;20.31;63.50;100875.81;4935208;29;20052;-76
2023/09/30 10:22:19;;;;;;;8.05;5.10;;;;;;;20.32;62.17;100877.50;4934922;29;20052;-77
2023/09/30 10:24:57;;;;;;;10.75;5.32;;;;;;;20.41;62.24;100863.38;4933633;29;20055;-77
2023/09/30 10:27:34;;;;;;;12.30;5.63;;;;;;;20.42;61.84;100857.06;4933184;29;20051;-78
2023/09/30 10:30:19;;;;;;;13.88;4.97;;;;;;;20.47;62.06;100861.19;4934756;29;20513;-76
2023/09/30 10:35:13;;;;;;;10.32;4.70;;;;;;;20.61;62.02;100871.63;4911328;23;20540;-73
2023/09/30 10:37:40;;;;;;;10.02;5.80;;;;;;;20.68;61.88;100869.28;4952338;29;20420;-78
2023/09/30 10:40:09;;;;;;;11.25;5.03;;;;;;;20.73;61.62;100866.22;4952290;29;20138;-75
2023/09/30 10:43:02;;;;;;;10.02;4.50;;;;;;;20.76;61.34;100880.22;4952005;28;20135;-73
2023/09/30 10:45:43;;;;;;;11.18;4.10;;;;;;;20.89;62.49;100880.06;4953440;29;20051;-75
2023/09/30 10:48:25;;;;;;;6.88;3.85;;;;;;;21.03;62.56;100881.59;4954362;28;20051;-78
2023/09/30 10:50:58;;;;;;;8.43;4.13;;;;;;;21.25;62.23;100882.47;4953879;29;20073;-73
2023/09/30 10:53:27;;;;;;;9.27;4.65;;;;;;;21.45;61.59;100885.25;4955727;28;20485;-73
2023/09/30 10:55:58;;;;;;;9.65;4.55;;;;;;;21.63;60.64;100892.72;4955275;28;20115;-75
2023/09/30 10:58:49;;;;;;;13.75;5.03;;;;;;;21.75;59.54;100894.34;4954472;29;20075;-75
2023/09/30 11:01:18;;;;;;;11.15;4.20;;;;;;;21.90;59.08;100899.38;4950793;28;20051;-79
2023/09/30 11:03:49;;;;;;;9.32;3.50;;;;;;;21.94;58.23;100893.59;4954355;29;20047;-79
2023/09/30 11:06:19;;;;;;;11.13;3.90;;;;;;;22.00;59.07;100894.91;4955238;28;20153;-75
2023/09/30 11:08:51;;;;;;;10.57;4.40;;;;;;;22.14;59.12;100877.59;4955285;28;20069;-78
2023/09/30 11:11:17;;;;;;;9.52;3.83;;;;;;;22.45;62.12;100884.72;4955416;28;20055;-74
2023/09/30 11:13:44;;;;;;;11.40;3.58;;;;;;;22.89;63.37;100896.00;4955503;28;20165;-80
2023/09/30 11:16:12;;;;;;;11.82;4.03;;;;;;;23.49;63.53;100890.59;4954946;28;20159;-79
2023/09/30 11:18:39;;;;;;;6.47;3.30;;;;;;;24.15;61.94;100890.69;4955158;29;20074;-75
2023/09/30 11:21:10;;;;;;;7.85;3.42;;;;;;;24.75;58.13;100896.56;4955225;28;20055;-75
2023/09/30 11:23:37;;;;;;;7.90;3.40;;;;;;;25.24;56.11;100888.09;4955170;28;20073;-75
2023/09/30 11:26:07;;;;;;;12.02;3.70;;;;;;;25.66;55.77;100883.88;4953754;28;20059;-74
2023/09/30 11:28:42;;;;;;;8.07;3.60;;;;;;;26.01;51.75;100883.84;4953830;29;20075;-77